createdAt,value
2022-09-15T00:00:26.757Z,99869.97
2022-09-15T00:02:53.267Z,99856.59
2022-09-15T00:05:19.985Z,99824.84
2022-09-15T00:07:46.700Z,99866.97
2022-09-15T00:10:13.250Z,99857.63
2022-09-15T00:12:40.210Z,99870.34
2022-09-15T00:15:07.760Z,99859.25
2022-09-15T00:17:34.679Z,99859.19
2022-09-15T00:20:01.504Z,99857.63
2022-09-15T00:22:28.410Z,99864.75
2022-09-15T00:24:54.885Z,99863.91
2022-09-15T00:27:21.389Z,99854.78
2022-09-15T00:29:47.931Z,99854.53
2022-09-15T00:32:14.409Z,99820.25
2022-09-15T00:34:40.891Z,99834.34
2022-09-15T00:37:07.360Z,99855.78
2022-09-15T00:39:34.138Z,99849.06
2022-09-15T00:42:00.674Z,99802.66
2022-09-15T00:44:36.322Z,99858.56
2022-09-15T00:47:18.779Z,99836.25
2022-09-15T00:49:47.689Z,99863.41
2022-09-15T00:52:21.079Z,99855.22
2022-09-15T00:55:00.862Z,99841.66
2022-09-15T00:57:39.075Z,99841.16
2022-09-15T01:00:09.889Z,99810.97
2022-09-15T01:02:37.907Z,99847.28
2022-09-15T01:05:08.722Z,99824.50
2022-09-15T01:07:39.938Z,99810.63
2022-09-15T01:10:25.974Z,99857.22
2022-09-15T01:12:55.515Z,99823.75
2022-09-15T01:15:25.102Z,99817.88
2022-09-15T01:18:13.232Z,99853.19
2022-09-15T01:20:49.946Z,99826.91
2022-09-15T01:23:34.859Z,99854.00
2022-09-15T01:26:04.496Z,99846.34
2022-09-15T01:28:55.923Z,99850.03
2022-09-15T01:31:29.985Z,99844.47
2022-09-15T01:34:06.547Z,99844.66
2022-09-15T01:36:47.482Z,99835.06
2022-09-15T01:39:17.994Z,99847.56
2022-09-15T01:41:47.610Z,99779.22
2022-09-15T01:44:24.694Z,99844.38
2022-09-15T01:47:03.227Z,99849.41
2022-09-15T01:49:35.563Z,99846.66
2022-09-15T01:52:02.412Z,99846.34
2022-09-15T01:54:31.014Z,99850.63
2022-09-15T01:56:57.663Z,99850.63
2022-09-15T01:59:24.639Z,99858.16
2022-09-15T02:01:58.990Z,99833.75
2022-09-15T02:04:31.776Z,99851.47
2022-09-15T02:07:15.381Z,99859.75
2022-09-15T02:10:14.838Z,99834.69
2022-09-15T02:12:50.728Z,99854.88
2022-09-15T02:15:25.420Z,99860.94
2022-09-15T02:17:54.239Z,99857.88
2022-09-15T02:20:42.756Z,99850.44
2022-09-15T02:23:27.609Z,99861.41
2022-09-15T02:25:59.462Z,99859.19
2022-09-15T02:28:29.293Z,99815.41
2022-09-15T02:30:58.118Z,99861.25
2022-09-15T02:33:30.107Z,99836.00
2022-09-15T02:35:56.626Z,99856.50
2022-09-15T02:38:23.636Z,99856.03
2022-09-15T02:40:50.737Z,99863.41
2022-09-15T02:43:17.643Z,99875.91
2022-09-15T02:45:44.159Z,99875.13
2022-09-15T02:48:10.771Z,99847.41
2022-09-15T02:50:38.343Z,99877.28
2022-09-15T02:53:05.355Z,99876.06
2022-09-15T02:55:32.066Z,99846.84
2022-09-15T02:57:59.206Z,99847.06
2022-09-15T03:00:27.762Z,99863.88
2022-09-15T03:02:54.541Z,99784.41
2022-09-15T03:05:26.855Z,99843.84
2022-09-15T03:07:53.518Z,99852.09
2022-09-15T03:10:21.290Z,99869.59
2022-09-15T03:12:50.258Z,99843.34
2022-09-15T03:15:19.233Z,99825.72
2022-09-15T03:17:46.997Z,99877.38
2022-09-15T03:20:16.830Z,99877.03
2022-09-15T03:22:43.362Z,99874.91
2022-09-15T03:25:10.574Z,99873.09
2022-09-15T03:27:37.315Z,99849.91
2022-09-15T03:30:05.203Z,99843.94
2022-09-15T03:32:31.679Z,99872.09
2022-09-15T03:34:58.760Z,99869.28
2022-09-15T03:37:25.771Z,99878.00
2022-09-15T03:39:52.446Z,99869.91
2022-09-15T03:42:20.448Z,99853.50
2022-09-15T03:44:47.194Z,99874.22
2022-09-15T03:47:13.701Z,99836.75
2022-09-15T03:49:40.215Z,99885.19
2022-09-15T03:52:06.741Z,99847.88
2022-09-15T03:54:33.176Z,99876.91
2022-09-15T03:56:59.690Z,99873.56
2022-09-15T03:59:26.206Z,99878.97
2022-09-15T04:01:52.896Z,99874.28
2022-09-15T04:04:19.504Z,99874.09
2022-09-15T04:06:46.511Z,99874.06
2022-09-15T04:09:13.561Z,99774.09
2022-09-15T04:11:40.892Z,99838.94
2022-09-15T04:14:07.473Z,99802.63
2022-09-15T04:16:34.468Z,99850.38
2022-09-15T04:19:01.737Z,99872.03
2022-09-15T04:21:28.215Z,99875.66
2022-09-15T04:23:54.867Z,99842.44
2022-09-15T04:26:29.000Z,99881.03
2022-09-15T04:28:55.536Z,99871.06
2022-09-15T04:31:22.151Z,99869.72
2022-09-15T04:33:51.714Z,99880.44
2022-09-15T04:36:21.113Z,99874.06
2022-09-15T04:38:47.999Z,99846.97
2022-09-15T04:41:15.093Z,99881.44
2022-09-15T04:43:43.359Z,99872.88
2022-09-15T04:46:10.779Z,99860.00
2022-09-15T04:48:37.809Z,99865.75
2022-09-15T04:51:06.164Z,99883.19
2022-09-15T04:53:32.770Z,99840.09
2022-09-15T04:56:10.100Z,99876.66
2022-09-15T04:58:44.527Z,99856.25
2022-09-15T05:01:16.965Z,99843.16
2022-09-15T05:03:44.207Z,99887.28
2022-09-15T05:06:13.073Z,99891.47
2022-09-15T05:08:40.138Z,99891.53
2022-09-15T05:11:09.541Z,99888.59
2022-09-15T05:13:36.535Z,99888.16
2022-09-15T05:16:05.249Z,99878.63
2022-09-15T05:18:33.029Z,99816.66
2022-09-15T05:21:03.424Z,99876.16
2022-09-15T05:23:31.187Z,99892.41
2022-09-15T05:25:58.346Z,99875.78
2022-09-15T05:28:25.165Z,99845.34
2022-09-15T05:30:52.916Z,99894.69
2022-09-15T05:33:20.991Z,99900.91
2022-09-15T05:35:55.413Z,99894.06
2022-09-15T05:38:22.710Z,99908.78
2022-09-15T05:40:49.269Z,99871.41
2022-09-15T05:43:16.928Z,99871.50
2022-09-15T05:45:43.699Z,99844.34
2022-09-15T05:48:11.946Z,99901.34
2022-09-15T05:50:39.370Z,99906.69
2022-09-15T05:53:07.495Z,99900.72
2022-09-15T05:55:38.062Z,99872.16
2022-09-15T05:58:04.886Z,99909.88
2022-09-15T06:00:31.391Z,99889.19
2022-09-15T06:02:58.241Z,99906.09
2022-09-15T06:05:24.848Z,99881.63
2022-09-15T06:07:55.067Z,99875.53
2022-09-15T06:10:24.670Z,99895.47
2022-09-15T06:12:55.010Z,99904.72
2022-09-15T06:15:22.779Z,99868.50
2022-09-15T06:17:49.422Z,99897.97
2022-09-15T06:20:16.036Z,99915.69
2022-09-15T06:22:42.483Z,99901.50
2022-09-15T06:25:09.298Z,99922.34
2022-09-15T06:27:35.858Z,99922.06
2022-09-15T06:30:02.527Z,99927.88
2022-09-15T06:32:28.986Z,99925.72
2022-09-15T06:34:55.475Z,99930.22
2022-09-15T06:37:21.963Z,99892.47
2022-09-15T06:39:48.426Z,99920.25
2022-09-15T06:42:15.318Z,99928.44
2022-09-15T06:44:41.749Z,99916.38
2022-09-15T06:47:08.222Z,99893.97
2022-09-15T06:49:34.690Z,99948.44
2022-09-15T06:52:02.484Z,99902.91
2022-09-15T06:54:28.984Z,99918.28
2022-09-15T06:56:55.535Z,99953.09
2022-09-15T06:59:23.921Z,99934.97
2022-09-15T07:01:54.583Z,99967.22
2022-09-15T07:04:21.779Z,99914.97
2022-09-15T07:06:48.562Z,99941.50
2022-09-15T07:09:15.127Z,99966.09
2022-09-15T07:11:41.635Z,99965.72
2022-09-15T07:14:08.362Z,99972.91
2022-09-15T07:16:35.280Z,99977.22
2022-09-15T07:19:05.178Z,99960.00
2022-09-15T07:21:31.770Z,99979.06
2022-09-15T07:23:58.403Z,99975.38
2022-09-15T07:26:27.603Z,99979.00
2022-09-15T07:28:56.578Z,99976.44
2022-09-15T07:31:25.388Z,99978.72
2022-09-15T07:33:52.237Z,99963.19
2022-09-15T07:36:19.649Z,99979.16
2022-09-15T07:38:48.081Z,99962.00
2022-09-15T07:41:16.647Z,99991.22
2022-09-15T07:43:50.804Z,99989.59
2022-09-15T07:46:18.423Z,99974.03
2022-09-15T07:48:50.004Z,99992.22
2022-09-15T07:51:16.974Z,99992.59
2022-09-15T07:53:44.908Z,99987.19
2022-09-15T07:56:11.761Z,99990.69
2022-09-15T07:58:38.244Z,99953.41
2022-09-15T08:01:06.785Z,99947.09
2022-09-15T08:03:33.758Z,99990.38
2022-09-15T08:06:03.946Z,99993.06
2022-09-15T08:08:30.433Z,100002.09
2022-09-15T08:10:58.107Z,99984.03
2022-09-15T08:13:25.019Z,100007.81
2022-09-15T08:15:52.188Z,100007.34
2022-09-15T08:18:18.798Z,100007.25
2022-09-15T08:20:45.297Z,100025.72
2022-09-15T08:23:11.808Z,100009.78
2022-09-15T08:25:39.548Z,100014.22
2022-09-15T08:28:06.280Z,100010.50
2022-09-15T08:30:32.977Z,100016.06
2022-09-15T08:32:59.564Z,100017.53
2022-09-15T08:35:26.088Z,100028.66
2022-09-15T08:37:54.369Z,100000.53
2022-09-15T08:40:23.776Z,99995.81
2022-09-15T08:42:52.368Z,100024.22
2022-09-15T08:45:30.557Z,100000.25
2022-09-15T08:48:01.004Z,100032.75
2022-09-15T08:50:38.794Z,100043.84
2022-09-15T08:53:21.955Z,100038.84
2022-09-15T08:55:56.807Z,100048.69
2022-09-15T08:58:29.664Z,100048.13
2022-09-15T09:01:01.270Z,100047.03
2022-09-15T09:03:48.234Z,100049.41
2022-09-15T09:06:56.421Z,100041.44
2022-09-15T09:09:37.819Z,100039.50
2022-09-15T09:12:24.841Z,100017.97
2022-09-15T09:14:54.354Z,100045.59
2022-09-15T09:17:23.934Z,100054.38
2022-09-15T09:20:25.488Z,100049.75
2022-09-15T09:22:53.828Z,100056.13
2022-09-15T09:25:27.521Z,100055.38
2022-09-15T09:27:55.411Z,100020.25
2022-09-15T09:30:23.480Z,100015.00
2022-09-15T09:32:55.754Z,100058.13
2022-09-15T09:35:36.276Z,100059.69
2022-09-15T09:38:02.846Z,100063.59
2022-09-15T09:40:31.758Z,100041.41
2022-09-15T09:42:59.950Z,100053.91
2022-09-15T09:45:26.483Z,100033.72
2022-09-15T09:47:59.489Z,100019.16
2022-09-15T09:50:44.511Z,100019.38
2022-09-15T09:53:31.907Z,100063.91
2022-09-15T09:56:28.774Z,100066.47
2022-09-15T09:58:55.439Z,100061.31
2022-09-15T10:01:25.318Z,100063.63
2022-09-15T10:04:19.047Z,100033.59
2022-09-15T10:06:45.807Z,100047.00
2022-09-15T10:09:17.527Z,100011.19
2022-09-15T10:11:54.977Z,100031.88
2022-09-15T10:14:31.435Z,100051.44
2022-09-15T10:17:18.066Z,100049.16
2022-09-15T10:19:47.987Z,100062.13
2022-09-15T10:22:43.862Z,100057.72
2022-09-15T10:25:19.477Z,100043.00
2022-09-15T10:28:03.748Z,100046.72
2022-09-15T10:30:30.291Z,100057.97
2022-09-15T10:33:17.715Z,100046.13
2022-09-15T10:35:44.662Z,100033.53
2022-09-15T10:38:19.915Z,100057.41
2022-09-15T10:40:53.028Z,100009.34
2022-09-15T10:43:38.481Z,100066.63
2022-09-15T10:46:13.201Z,100069.53
2022-09-15T10:48:48.964Z,100032.16
2022-09-15T10:51:26.867Z,100066.28
2022-09-15T10:54:18.139Z,100065.38
2022-09-15T10:56:49.131Z,100074.69
2022-09-15T10:59:33.958Z,100077.56
2022-09-15T11:02:28.011Z,100086.03
2022-09-15T11:05:22.549Z,100080.53
2022-09-15T11:07:49.692Z,100092.72
2022-09-15T11:10:19.212Z,100085.81
2022-09-15T11:13:08.165Z,100094.84
2022-09-15T11:15:49.602Z,100092.28
2022-09-15T11:18:22.351Z,100072.03
2022-09-15T11:21:11.289Z,100074.78
2022-09-15T11:23:42.591Z,100078.75
2022-09-15T11:26:17.543Z,100065.91
2022-09-15T11:28:50.514Z,100077.16
2022-09-15T11:31:27.524Z,100075.63
2022-09-15T11:34:02.477Z,100064.03
2022-09-15T11:36:34.802Z,100078.03
2022-09-15T11:39:08.404Z,100078.03
2022-09-15T11:41:56.247Z,100082.56
2022-09-15T11:44:24.610Z,100078.22
2022-09-15T11:47:16.319Z,100075.03
2022-09-15T11:50:02.182Z,100062.06
2022-09-15T11:53:06.385Z,100066.00
2022-09-15T11:56:12.059Z,100064.84
2022-09-15T11:59:03.885Z,100072.28
2022-09-15T12:01:39.937Z,100066.53
2022-09-15T12:04:23.108Z,100039.06
2022-09-15T12:06:57.347Z,100078.25
2022-09-15T12:09:23.947Z,100055.06
2022-09-15T12:11:54.219Z,100061.59
2022-09-15T12:14:47.090Z,100061.53
2022-09-15T12:17:18.834Z,100065.75
2022-09-15T12:20:08.217Z,100058.72
2022-09-15T12:22:41.719Z,100061.81
2022-09-15T12:25:39.067Z,100051.38
2022-09-15T12:28:24.050Z,100051.94
2022-09-15T12:31:13.244Z,100060.38
2022-09-15T12:33:42.750Z,100063.63
2022-09-15T12:36:31.171Z,100055.84
2022-09-15T12:38:58.738Z,100054.31
2022-09-15T12:41:25.555Z,100020.44
2022-09-15T12:44:12.498Z,100048.63
2022-09-15T12:46:39.421Z,100068.03
2022-09-15T12:49:06.170Z,100065.19
2022-09-15T12:51:33.535Z,100036.69
2022-09-15T12:54:04.615Z,100032.38
2022-09-15T12:56:33.023Z,99999.53
2022-09-15T12:59:06.606Z,100056.84
2022-09-15T13:01:48.515Z,100063.28
2022-09-15T13:04:43.731Z,100059.53
2022-09-15T13:07:16.335Z,100067.84
2022-09-15T13:09:57.049Z,100060.00
2022-09-15T13:12:27.045Z,100050.66
2022-09-15T13:14:54.560Z,100043.59
2022-09-15T13:17:24.239Z,100059.91
2022-09-15T13:19:53.331Z,100058.66
2022-09-15T13:22:27.361Z,100058.22
2022-09-15T13:24:57.690Z,100053.19
2022-09-15T13:27:33.433Z,100026.88
2022-09-15T13:30:16.094Z,99995.50
2022-09-15T13:32:52.892Z,100047.03
2022-09-15T13:35:37.523Z,100055.50
2022-09-15T13:38:12.658Z,100041.63
2022-09-15T13:41:18.500Z,100040.38
2022-09-15T13:43:45.358Z,100036.41
2022-09-15T13:46:33.711Z,100038.91
2022-09-15T13:49:15.555Z,100030.59
2022-09-15T13:51:43.816Z,100040.72
2022-09-15T13:54:19.088Z,99973.66
2022-09-15T13:56:47.353Z,100016.00
2022-09-15T13:59:17.908Z,100026.44
2022-09-15T14:01:45.269Z,100021.25
2022-09-15T14:04:17.299Z,100020.94
2022-09-15T14:06:46.083Z,100013.13
2022-09-15T14:09:21.433Z,100010.66
2022-09-15T14:11:49.077Z,100023.63
2022-09-15T14:14:27.786Z,100015.91
2022-09-15T14:16:56.432Z,100011.44
2022-09-15T14:19:38.201Z,99998.94
2022-09-15T14:22:30.889Z,100007.34
2022-09-15T14:24:59.422Z,100013.72
2022-09-15T14:27:32.361Z,100011.41
2022-09-15T14:30:03.217Z,100018.19
2022-09-15T14:32:38.487Z,100024.38
2022-09-15T14:35:07.297Z,100011.25
2022-09-15T14:37:34.847Z,99969.56
2022-09-15T14:40:12.547Z,99992.13
2022-09-15T14:42:42.245Z,99977.56
2022-09-15T14:48:06.641Z,100008.59
2022-09-15T14:50:33.755Z,100014.13
2022-09-15T14:53:03.938Z,100023.53
2022-09-15T14:55:32.055Z,100025.16
2022-09-15T14:58:01.921Z,100023.47
2022-09-15T15:00:32.241Z,100021.09
2022-09-15T15:03:14.860Z,100025.41
2022-09-15T15:06:02.659Z,100022.09
2022-09-15T15:08:41.362Z,100030.44
2022-09-15T15:11:08.481Z,100034.00
2022-09-15T15:13:36.766Z,99995.16
2022-09-15T15:16:07.927Z,100031.91
2022-09-15T15:18:40.324Z,100005.88
2022-09-15T15:21:38.595Z,100037.47
2022-09-15T15:24:12.531Z,100030.25
2022-09-15T15:26:42.598Z,100034.31
2022-09-15T15:29:39.694Z,100033.53
2022-09-15T15:32:11.640Z,100021.16
2022-09-15T15:34:38.617Z,99992.56
2022-09-15T15:37:16.561Z,100036.00
2022-09-15T15:39:45.836Z,100023.47
2022-09-15T15:42:15.523Z,100046.06
2022-09-15T15:45:04.243Z,100050.06
2022-09-15T15:47:32.517Z,100048.78
2022-09-15T15:50:13.662Z,100054.16
2022-09-15T15:52:41.567Z,100059.44
2022-09-15T15:55:16.384Z,100018.28
2022-09-15T15:57:43.316Z,100035.34
2022-09-15T16:00:26.626Z,100054.19
2022-09-15T16:02:54.031Z,100055.25
2022-09-15T16:05:22.172Z,100049.03
2022-09-15T16:07:50.156Z,100020.63
2022-09-15T16:10:19.197Z,100043.41
2022-09-15T16:12:49.062Z,100051.41
2022-09-15T16:15:20.447Z,100064.44
2022-09-15T16:17:48.305Z,100054.50
2022-09-15T16:20:16.320Z,100032.63
2022-09-15T16:22:43.577Z,100049.75
2022-09-15T16:25:13.457Z,100052.84
2022-09-15T16:27:40.600Z,100018.84
2022-09-15T16:30:08.408Z,100059.16
2022-09-15T16:32:34.938Z,100053.13
2022-09-15T16:35:01.590Z,100050.41
2022-09-15T16:37:28.108Z,100051.00
2022-09-15T16:39:54.710Z,100052.94
2022-09-15T16:42:21.215Z,100046.75
2022-09-15T16:44:47.714Z,100035.69
2022-09-15T16:47:14.168Z,100047.91
2022-09-15T16:49:40.720Z,100044.88
2022-09-15T16:52:09.130Z,100054.63
2022-09-15T16:54:35.632Z,100027.28
2022-09-15T16:57:02.227Z,100045.59
2022-09-15T16:59:28.823Z,100020.25
2022-09-15T17:01:55.456Z,100050.06
2022-09-15T17:04:22.849Z,100043.69
2022-09-15T17:06:49.523Z,100021.19
2022-09-15T17:09:15.979Z,100061.28
2022-09-15T17:11:42.655Z,100034.75
2022-09-15T17:14:13.910Z,100053.91
2022-09-15T17:16:40.444Z,100067.28
2022-09-15T17:19:07.152Z,100068.72
2022-09-15T17:21:33.652Z,100081.09
2022-09-15T17:24:00.484Z,100083.13
2022-09-15T17:26:31.248Z,100086.41
2022-09-15T17:28:58.444Z,100081.41
2022-09-15T17:31:25.157Z,100084.00
2022-09-15T17:33:52.303Z,100073.31
2022-09-15T17:36:18.849Z,100071.38
2022-09-15T17:38:45.998Z,100011.44
2022-09-15T17:41:17.608Z,100075.03
2022-09-15T17:43:44.320Z,100067.25
2022-09-15T17:46:10.899Z,100043.19
2022-09-15T17:48:38.869Z,100066.69
2022-09-15T17:51:06.880Z,100075.03
2022-09-15T17:53:33.610Z,100070.50
2022-09-15T17:56:00.196Z,100055.22
2022-09-15T17:58:26.970Z,100076.56
2022-09-15T18:00:54.093Z,100079.28
2022-09-15T18:03:31.109Z,100077.41
2022-09-15T18:05:59.510Z,100072.09
2022-09-15T18:08:27.117Z,100074.41
2022-09-15T18:10:53.791Z,100080.56
2022-09-15T18:13:23.418Z,100059.66
2022-09-15T18:15:50.507Z,100079.28
2022-09-15T18:18:20.269Z,100094.88
2022-09-15T18:20:47.895Z,100088.13
2022-09-15T18:23:17.052Z,100060.13
2022-09-15T18:25:44.395Z,100089.34
2022-09-15T18:28:11.148Z,100099.47
2022-09-15T18:30:42.424Z,100097.47
2022-09-15T18:33:20.266Z,100100.53
2022-09-15T18:35:48.583Z,100104.63
2022-09-15T18:38:15.309Z,100071.56
2022-09-15T18:40:50.088Z,100074.06
2022-09-15T18:43:17.111Z,100087.97
2022-09-15T18:45:44.532Z,100124.22
2022-09-15T18:48:13.150Z,100127.06
2022-09-15T18:50:41.564Z,100124.34
2022-09-15T18:53:08.376Z,100114.53
2022-09-15T18:55:35.137Z,100095.78
2022-09-15T18:58:02.646Z,100125.03
2022-09-15T19:00:29.370Z,100132.34
2022-09-15T19:03:00.579Z,100093.31
2022-09-15T19:05:28.385Z,100125.69
2022-09-15T19:07:55.363Z,100074.00
2022-09-15T19:10:22.504Z,100112.53
2022-09-15T19:12:49.004Z,100098.28
2022-09-15T19:15:15.842Z,100130.84
2022-09-15T19:17:42.892Z,100135.22
2022-09-15T19:20:11.788Z,100093.88
2022-09-15T19:22:38.410Z,100139.06
2022-09-15T19:25:05.889Z,100134.78
2022-09-15T19:27:35.822Z,100101.75
2022-09-15T19:30:02.322Z,100109.41
2022-09-15T19:32:28.844Z,100120.91
2022-09-15T19:34:55.312Z,100134.28
2022-09-15T19:37:22.418Z,100126.13
2022-09-15T19:39:49.127Z,100138.34
2022-09-15T19:44:47.930Z,100135.72
2022-09-15T19:47:14.937Z,100144.22
2022-09-15T19:49:41.501Z,100131.41
2022-09-15T19:52:08.077Z,100100.66
2022-09-15T19:54:34.987Z,100146.34
2022-09-15T19:57:01.960Z,100134.88
2022-09-15T19:59:31.262Z,100135.03
2022-09-15T20:01:58.593Z,100145.84
2022-09-15T20:04:25.165Z,100104.22
2022-09-15T20:06:51.837Z,100101.00
2022-09-15T20:09:18.469Z,100133.59
2022-09-15T20:11:45.082Z,100140.25
2022-09-15T20:14:12.000Z,100141.03
2022-09-15T20:16:39.562Z,100122.47
2022-09-15T20:19:06.177Z,100129.53
2022-09-15T20:21:51.772Z,100167.97
2022-09-15T20:24:19.682Z,100162.38
2022-09-15T20:26:47.677Z,100141.31
2022-09-15T20:29:14.480Z,100179.94
2022-09-15T20:31:41.724Z,100172.47
2022-09-15T20:34:08.439Z,100177.16
2022-09-15T20:36:36.670Z,100181.41
2022-09-15T20:39:05.768Z,100176.94
2022-09-15T20:41:32.425Z,100183.06
2022-09-15T20:43:59.133Z,100159.22
2022-09-15T20:46:26.233Z,100185.06
2022-09-15T20:48:53.216Z,100191.88
2022-09-15T20:51:25.525Z,100196.13
2022-09-15T20:53:54.123Z,100197.50
2022-09-15T20:56:24.925Z,100191.53
2022-09-15T20:58:56.710Z,100204.59
2022-09-15T21:01:25.705Z,100193.53
2022-09-15T21:03:52.323Z,100153.69
2022-09-15T21:06:23.016Z,100146.13
2022-09-15T21:08:50.169Z,100164.19
2022-09-15T21:11:18.197Z,100199.22
2022-09-15T21:13:45.675Z,100199.06
2022-09-15T21:16:15.244Z,100191.94
2022-09-15T21:18:43.347Z,100191.41
2022-09-15T21:21:17.429Z,100194.38
2022-09-15T21:23:55.291Z,100195.56
2022-09-15T21:26:25.663Z,100200.75
2022-09-15T21:28:53.638Z,100189.81
2022-09-15T21:31:22.592Z,100170.91
2022-09-15T21:33:49.685Z,100202.56
2022-09-15T21:36:19.706Z,100199.56
2022-09-15T21:38:46.265Z,100185.19
2022-09-15T21:41:15.733Z,100196.41
2022-09-15T21:43:44.483Z,100214.28
2022-09-15T21:46:13.698Z,100144.81
2022-09-15T21:48:40.812Z,100209.91
2022-09-15T21:51:07.914Z,100215.56
2022-09-15T21:53:37.737Z,100188.88
2022-09-15T21:56:06.070Z,100174.09
2022-09-15T21:58:38.959Z,100212.97
2022-09-15T22:01:20.901Z,100217.16
2022-09-15T22:03:53.513Z,100198.06
2022-09-15T22:06:22.582Z,100210.03
2022-09-15T22:08:49.208Z,100205.72
2022-09-15T22:11:15.703Z,100211.91
2022-09-15T22:13:43.602Z,100221.94
2022-09-15T22:16:16.488Z,100167.34
2022-09-15T22:18:43.435Z,100219.28
2022-09-15T22:21:12.982Z,100227.09
2022-09-15T22:23:39.902Z,100212.44
2022-09-15T22:26:09.101Z,100224.84
2022-09-15T22:28:35.663Z,100192.63
2022-09-15T22:31:04.430Z,100200.47
2022-09-15T22:33:31.002Z,100186.09
2022-09-15T22:35:58.456Z,100221.31
2022-09-15T22:38:27.870Z,100176.50
2022-09-15T22:40:55.794Z,100229.44
2022-09-15T22:43:23.298Z,100226.66
2022-09-15T22:45:50.421Z,100205.78
2022-09-15T22:48:17.332Z,100212.53
2022-09-15T22:50:45.279Z,100207.94
2022-09-15T22:53:12.874Z,100219.34
2022-09-15T22:55:39.880Z,100204.13
2022-09-15T22:58:06.486Z,100191.88
2022-09-15T23:00:33.363Z,100220.06
2022-09-15T23:03:00.281Z,100221.78
2022-09-15T23:05:26.769Z,100219.06
2022-09-15T23:07:53.242Z,100204.00
2022-09-15T23:10:19.730Z,100220.88
2022-09-15T23:12:46.231Z,100220.16
2022-09-15T23:15:12.729Z,100227.69
2022-09-15T23:17:39.448Z,100193.25
2022-09-15T23:20:06.164Z,100177.66
2022-09-15T23:22:32.697Z,100196.53
2022-09-15T23:24:59.174Z,100208.22
2022-09-15T23:27:25.652Z,100213.41
2022-09-15T23:29:52.135Z,100186.69
2022-09-15T23:32:18.661Z,100210.34
2022-09-15T23:34:45.192Z,100207.78
2022-09-15T23:37:11.661Z,100209.59
2022-09-15T23:39:38.109Z,100209.34
2022-09-15T23:42:04.634Z,100211.84
2022-09-15T23:44:31.130Z,100209.97
2022-09-15T23:46:57.708Z,100195.00
2022-09-15T23:49:24.235Z,100209.28
2022-09-15T23:51:50.724Z,100204.84
2022-09-15T23:54:17.457Z,100203.38
2022-09-15T23:56:44.028Z,100201.75
2022-09-15T23:59:10.480Z,100174.47
